Time;durP1;ratioP1;P1;durP2;ratioP2;P2;SDS_P1;SDS_P2;PMS_P1;PMS_P2;Temp;Humidity;BMP_temperature;BMP_pressure;BME280_temperature;BME280_humidity;BME280_pressure;Samples;Min_cycle;Max_cycle;Signal;HPM_P1;HPM_P2
2022/07/15 00:00:42;;;;;;;0.68;0.50;;;24.30;51.30;;;;;;6286484;28;20050;-45
2022/07/15 00:03:44;;;;;;;1.10;0.73;;;24.30;51.40;;;;;;6270033;28;20072;-44
2022/07/15 00:06:49;;;;;;;0.45;0.45;;;24.30;51.50;;;;;;6293519;28;20142;-46
2022/07/15 00:13:07;;;;;;;0.60;0.45;;;24.20;51.60;;;;;;6265608;28;21311;-43
2022/07/15 00:16:09;;;;;;;0.63;0.40;;;24.20;51.80;;;;;;6283115;28;20048;-45
2022/07/15 00:19:10;;;;;;;0.65;0.50;;;24.20;51.70;;;;;;6283807;28;20889;-49
2022/07/15 00:22:12;;;;;;;0.52;0.50;;;24.20;51.80;;;;;;6281190;28;20094;-45
2022/07/15 00:25:16;;;;;;;0.60;0.60;;;24.20;51.90;;;;;;6277441;28;20948;-43
2022/07/15 00:28:17;;;;;;;0.55;0.50;;;24.20;52.00;;;;;;6266361;28;20055;-43
2022/07/15 00:31:19;;;;;;;0.65;0.60;;;24.20;52.00;;;;;;6270635;28;20047;-45
2022/07/15 00:34:21;;;;;;;0.63;0.52;;;24.10;52.10;;;;;;6289591;28;20046;-46
2022/07/15 00:37:26;;;;;;;0.40;0.40;;;24.10;52.10;;;;;;6290794;28;20781;-44
2022/07/15 00:40:29;;;;;;;0.40;0.35;;;24.20;52.20;;;;;;6290194;28;20047;-41
2022/07/15 00:43:30;;;;;;;0.50;0.50;;;25.90;53.40;;;;;;6267221;28;20051;-46
2022/07/15 00:46:32;;;;;;;0.40;0.40;;;24.10;52.40;;;;;;6282034;28;20044;-43
2022/07/15 00:49:34;;;;;;;0.60;0.50;;;24.00;52.40;;;;;;6271855;28;20046;-44
2022/07/15 00:52:39;;;;;;;0.60;0.47;;;24.00;52.50;;;;;;6295398;28;20159;-41
2022/07/15 00:55:43;;;;;;;0.57;0.45;;;24.00;52.50;;;;;;6291955;28;20088;-41
2022/07/15 00:58:47;;;;;;;0.65;0.45;;;23.90;52.50;;;;;;6269865;28;20063;-43
2022/07/15 01:01:51;;;;;;;0.73;0.60;;;24.00;52.60;;;;;;6291260;28;20136;-43
2022/07/15 01:04:54;;;;;;;0.40;0.40;;;23.90;52.70;;;;;;6270992;28;20078;-41
2022/07/15 01:07:56;;;;;;;0.40;0.40;;;24.00;52.80;;;;;;6289962;28;20898;-42
2022/07/15 01:10:58;;;;;;;1.02;0.50;;;24.00;52.80;;;;;;6288797;28;20979;-47
2022/07/15 01:14:01;;;;;;;0.52;0.30;;;24.00;52.90;;;;;;6291061;28;20051;-44
2022/07/15 01:17:09;;;;;;;0.60;0.45;;;23.90;52.90;;;;;;6291132;28;20047;-45
2022/07/15 01:20:12;;;;;;;0.82;0.38;;;24.00;53.00;;;;;;6270052;28;20044;-43
2022/07/15 01:23:25;;;;;;;0.50;0.50;;;24.00;53.00;;;;;;6254307;28;20058;-44
2022/07/15 01:26:36;;;;;;;0.40;0.40;;;23.90;53.00;;;;;;6291281;28;20047;-46
2022/07/15 01:29:38;;;;;;;0.63;0.50;;;23.90;53.00;;;;;;6288661;28;20069;-47
2022/07/15 01:32:40;;;;;;;0.38;0.30;;;23.90;53.10;;;;;;6284427;28;20159;-42
2022/07/15 01:35:42;;;;;;;0.52;0.40;;;23.90;53.10;;;;;;6285610;28;20036;-46
2022/07/15 01:38:44;;;;;;;0.50;0.50;;;23.90;53.10;;;;;;6278452;28;20137;-45
2022/07/15 01:41:54;;;;;;;0.90;0.50;;;24.00;53.20;;;;;;6279046;28;20126;-45
2022/07/15 01:44:59;;;;;;;0.65;0.57;;;24.00;53.20;;;;;;6284052;28;21021;-47
2022/07/15 01:48:01;;;;;;;0.60;0.40;;;23.80;53.10;;;;;;6293201;28;20046;-49
2022/07/15 01:51:18;;;;;;;0.65;0.40;;;23.90;53.20;;;;;;6293459;28;20051;-46
2022/07/15 01:54:20;;;;;;;0.50;0.43;;;23.80;53.10;;;;;;6291309;28;20050;-44
2022/07/15 01:57:22;;;;;;;0.40;0.35;;;23.90;53.20;;;;;;6286422;28;20047;-42
2022/07/15 02:00:28;;;;;;;0.73;0.60;;;23.90;53.20;;;;;;6281813;28;20659;-41
2022/07/15 02:03:30;;;;;;;0.60;0.40;;;23.80;53.10;;;;;;6291108;28;20602;-44
2022/07/15 02:06:32;;;;;;;0.40;0.40;;;23.80;53.10;;;;;;6287404;28;20122;-40
2022/07/15 02:09:35;;;;;;;0.60;0.45;;;23.90;53.20;;;;;;6294124;28;21046;-43
2022/07/15 02:12:37;;;;;;;0.43;0.40;;;23.80;53.20;;;;;;6291174;28;21004;-44
2022/07/15 02:15:41;;;;;;;0.65;0.50;;;24.00;53.20;;;;;;6291161;28;20189;-45
2022/07/15 02:18:43;;;;;;;0.82;0.52;;;23.80;53.10;;;;;;6273348;28;21036;-45
2022/07/15 02:21:45;;;;;;;0.50;0.43;;;23.80;53.10;;;;;;6291589;28;20149;-46
2022/07/15 02:24:47;;;;;;;0.50;0.50;;;23.80;53.10;;;;;;6287118;28;20075;-46
2022/07/15 02:27:56;;;;;;;0.50;0.50;;;23.80;53.10;;;;;;6284613;28;20174;-43
2022/07/15 02:30:58;;;;;;;0.47;0.40;;;23.80;53.10;;;;;;6284998;28;20059;-45
2022/07/15 02:33:59;;;;;;;0.50;0.50;;;23.80;53.10;;;;;;6291087;28;20052;-43
2022/07/15 02:37:02;;;;;;;0.68;0.50;;;23.80;53.10;;;;;;6284973;28;20031;-46
2022/07/15 02:40:06;;;;;;;0.73;0.40;;;23.80;53.10;;;;;;6285636;28;20044;-44
2022/07/15 02:43:08;;;;;;;0.77;0.50;;;23.80;53.10;;;;;;6289503;28;20078;-43
2022/07/15 02:46:10;;;;;;;0.40;0.30;;;23.70;53.00;;;;;;6288873;28;20094;-48
2022/07/15 02:49:13;;;;;;;0.38;0.30;;;23.70;53.00;;;;;;6287185;28;20992;-44
2022/07/15 02:52:15;;;;;;;0.77;0.50;;;23.80;53.00;;;;;;6278581;28;20052;-44
2022/07/15 02:55:22;;;;;;;0.60;0.40;;;23.70;53.00;;;;;;6285340;28;21017;-44
2022/07/15 02:58:23;;;;;;;0.70;0.50;;;23.80;53.10;;;;;;6289118;28;20839;-44
2022/07/15 03:01:25;;;;;;;0.40;0.30;;;23.80;53.10;;;;;;6286641;28;20750;-45
2022/07/15 03:04:27;;;;;;;0.50;0.40;;;23.70;53.10;;;;;;6285426;28;20047;-41
2022/07/15 03:07:29;;;;;;;0.50;0.40;;;23.80;53.10;;;;;;6292021;28;20039;-43
2022/07/15 03:10:31;;;;;;;0.85;0.50;;;23.70;53.10;;;;;;6287210;28;20071;-48
2022/07/15 03:13:33;;;;;;;0.30;0.30;;;23.80;53.20;;;;;;6286381;28;20027;-43
2022/07/15 03:16:36;;;;;;;0.38;0.30;;;23.70;53.10;;;;;;6288400;28;20058;-46
2022/07/15 03:19:37;;;;;;;0.60;0.45;;;23.80;53.20;;;;;;6287712;28;20048;-48
2022/07/15 03:22:39;;;;;;;0.82;0.60;;;23.80;53.20;;;;;;6289890;28;22312;-44
2022/07/15 03:25:41;;;;;;;0.65;0.50;;;23.70;53.20;;;;;;6285457;28;20046;-44
2022/07/15 03:28:46;;;;;;;0.43;0.40;;;23.80;53.30;;;;;;6284366;28;20036;-45
2022/07/15 03:31:48;;;;;;;0.70;0.35;;;23.80;53.20;;;;;;6287304;28;20937;-44
2022/07/15 03:34:57;;;;;;;0.30;0.30;;;23.70;53.20;;;;;;6289268;28;20903;-42
2022/07/15 03:38:00;;;;;;;0.68;0.35;;;23.80;53.20;;;;;;6287198;28;20051;-47
2022/07/15 03:41:03;;;;;;;0.55;0.30;;;23.80;53.20;;;;;;6288028;28;20043;-42
2022/07/15 03:44:05;;;;;;;0.40;0.38;;;23.80;53.20;;;;;;6287912;28;20032;-48
2022/07/15 03:47:12;;;;;;;0.75;0.50;;;23.80;53.10;;;;;;6283031;28;20059;-46
2022/07/15 03:50:14;;;;;;;0.90;0.40;;;23.90;53.20;;;;;;6284082;28;20027;-43
2022/07/15 03:53:16;;;;;;;0.47;0.43;;;23.80;53.10;;;;;;6288884;28;20831;-44
2022/07/15 03:56:18;;;;;;;0.60;0.43;;;23.90;53.10;;;;;;6290604;28;20047;-42
2022/07/15 03:59:20;;;;;;;0.82;0.60;;;23.80;53.00;;;;;;6288586;28;20147;-44
2022/07/15 04:02:22;;;;;;;0.88;0.50;;;23.80;53.00;;;;;;6264954;28;20041;-44
2022/07/15 04:05:24;;;;;;;0.55;0.40;;;23.90;53.00;;;;;;6278084;28;20047;-45
2022/07/15 04:08:26;;;;;;;1.00;0.43;;;23.70;52.90;;;;;;6279399;28;20864;-44
2022/07/15 04:11:28;;;;;;;0.47;0.40;;;23.90;53.10;;;;;;6276158;28;20125;-43
2022/07/15 04:14:30;;;;;;;0.55;0.40;;;23.80;53.00;;;;;;6258002;28;20058;-45
2022/07/15 04:17:32;;;;;;;0.57;0.38;;;23.80;53.00;;;;;;6274845;28;20044;-45
2022/07/15 04:20:34;;;;;;;0.32;0.32;;;23.90;53.00;;;;;;6270717;28;20067;-44
2022/07/15 04:23:36;;;;;;;0.43;0.30;;;23.90;53.00;;;;;;6269201;28;20154;-44
2022/07/15 04:26:38;;;;;;;0.55;0.30;;;23.90;53.10;;;;;;6268920;28;21020;-43
2022/07/15 04:29:40;;;;;;;0.50;0.50;;;23.80;53.00;;;;;;6272408;28;20154;-42
2022/07/15 04:32:43;;;;;;;0.55;0.30;;;23.90;53.10;;;;;;6275155;28;21148;-48
2022/07/15 04:35:46;;;;;;;0.40;0.30;;;23.90;53.10;;;;;;6268426;28;20047;-43
2022/07/15 04:38:48;;;;;;;0.50;0.40;;;23.90;53.10;;;;;;6266432;28;20067;-43
2022/07/15 04:41:51;;;;;;;0.45;0.40;;;23.80;53.00;;;;;;6269542;28;20108;-44
2022/07/15 04:44:53;;;;;;;0.65;0.60;;;23.80;53.00;;;;;;6282665;28;20120;-43
2022/07/15 04:47:55;;;;;;;0.50;0.50;;;23.80;53.00;;;;;;6278035;28;20033;-45
2022/07/15 04:51:04;;;;;;;1.65;0.40;;;23.80;53.00;;;;;;6278752;28;20090;-41
2022/07/15 04:54:06;;;;;;;0.60;0.40;;;23.90;53.10;;;;;;6275262;28;20038;-41
2022/07/15 04:57:11;;;;;;;0.60;0.40;;;23.90;53.10;;;;;;6273791;28;20210;-44
2022/07/15 05:00:14;;;;;;;0.50;0.40;;;23.80;53.10;;;;;;6280963;28;20039;-44
2022/07/15 05:03:15;;;;;;;0.43;0.40;;;23.80;53.10;;;;;;6276149;28;21325;-45
2022/07/15 05:06:21;;;;;;;0.40;0.35;;;23.80;53.20;;;;;;6283794;28;20047;-43
2022/07/15 05:09:22;;;;;;;0.50;0.40;;;23.80;53.10;;;;;;6291193;28;20078;-45
2022/07/15 05:12:28;;;;;;;0.47;0.40;;;23.70;53.00;;;;;;6284967;28;20045;-43
2022/07/15 05:15:33;;;;;;;1.13;0.52;;;23.80;53.10;;;;;;6288695;28;20056;-45
2022/07/15 05:18:46;;;;;;;0.60;0.50;;;23.90;53.10;;;;;;6281716;28;20098;-43
2022/07/15 05:21:51;;;;;;;1.00;0.50;;;23.80;53.10;;;;;;6288552;28;20957;-42
2022/07/15 05:24:54;;;;;;;0.50;0.43;;;23.90;53.10;;;;;;6279099;28;20090;-42
2022/07/15 05:27:57;;;;;;;0.55;0.43;;;23.80;53.00;;;;;;6279398;28;20868;-42
2022/07/15 05:30:59;;;;;;;0.47;0.47;;;23.90;53.10;;;;;;6285298;28;20051;-44
2022/07/15 05:34:00;;;;;;;0.93;0.50;;;23.80;53.00;;;;;;6282908;28;20182;-44
2022/07/15 05:37:02;;;;;;;0.65;0.50;;;23.80;53.00;;;;;;6281085;28;21202;-41
2022/07/15 05:40:06;;;;;;;0.40;0.40;;;23.80;53.00;;;;;;6282528;28;20092;-43
2022/07/15 05:43:16;;;;;;;0.60;0.32;;;23.80;52.90;;;;;;6276397;28;20196;-47
2022/07/15 05:46:19;;;;;;;0.40;0.40;;;23.80;52.80;;;;;;6274857;28;20036;-43
2022/07/15 05:49:26;;;;;;;0.80;0.65;;;23.80;52.80;;;;;;6278549;28;20043;-43
2022/07/15 05:52:30;;;;;;;0.65;0.50;;;23.90;52.80;;;;;;6274869;28;20062;-42
2022/07/15 05:55:35;;;;;;;0.52;0.40;;;24.00;52.80;;;;;;6275272;28;20143;-42
2022/07/15 05:58:38;;;;;;;0.50;0.40;;;23.80;52.70;;;;;;6277639;28;20485;-43
2022/07/15 06:01:39;;;;;;;1.17;0.60;;;23.80;52.60;;;;;;6271994;28;20166;-42
2022/07/15 06:04:43;;;;;;;0.80;0.50;;;23.80;52.50;;;;;;6280970;28;20052;-41
2022/07/15 06:07:48;;;;;;;0.50;0.43;;;23.90;52.60;;;;;;6261971;28;20889;-47
2022/07/15 06:10:53;;;;;;;0.52;0.50;;;23.80;52.50;;;;;;6278691;28;20063;-43
2022/07/15 06:13:57;;;;;;;0.77;0.40;;;23.80;52.50;;;;;;6275206;28;21130;-45
2022/07/15 06:16:59;;;;;;;0.65;0.47;;;23.80;52.40;;;;;;6277038;28;20150;-46
2022/07/15 06:20:01;;;;;;;0.50;0.50;;;23.80;52.40;;;;;;6278617;28;20877;-43
2022/07/15 06:23:07;;;;;;;0.90;0.55;;;23.70;52.20;;;;;;6252927;28;20042;-43
2022/07/15 06:26:10;;;;;;;0.40;0.40;;;23.80;52.20;;;;;;6278697;28;20036;-45
2022/07/15 06:29:13;;;;;;;0.47;0.40;;;23.90;52.20;;;;;;6278004;28;21126;-43
2022/07/15 06:32:14;;;;;;;0.50;0.50;;;23.80;52.10;;;;;;6280105;28;20083;-45
2022/07/15 06:35:16;;;;;;;0.40;0.40;;;23.80;52.00;;;;;;6278838;28;20039;-42
2022/07/15 06:38:18;;;;;;;0.85;0.40;;;23.80;51.90;;;;;;6277647;28;20040;-43
2022/07/15 06:41:20;;;;;;;0.60;0.50;;;23.80;51.80;;;;;;6272558;28;20290;-44
2022/07/15 06:44:26;;;;;;;0.70;0.45;;;23.90;51.80;;;;;;6269543;28;20996;-43
2022/07/15 06:47:30;;;;;;;0.50;0.40;;;23.80;51.70;;;;;;6256272;28;20055;-45
2022/07/15 06:50:33;;;;;;;0.63;0.45;;;23.80;51.50;;;;;;6272823;28;20055;-45
2022/07/15 06:53:36;;;;;;;0.98;0.68;;;23.80;51.40;;;;;;6263497;28;20159;-44
2022/07/15 06:56:38;;;;;;;0.85;0.50;;;23.70;51.30;;;;;;6264904;28;20826;-43
2022/07/15 06:59:40;;;;;;;0.70;0.40;;;23.90;51.30;;;;;;6259101;28;20087;-44
2022/07/15 07:02:42;;;;;;;0.43;0.32;;;23.90;51.20;;;;;;6248559;28;20094;-40
2022/07/15 07:05:49;;;;;;;0.35;0.35;;;23.90;51.10;;;;;;6241729;28;20056;-44
2022/07/15 07:08:52;;;;;;;0.75;0.40;;;23.90;51.00;;;;;;6248979;28;20050;-41
2022/07/15 07:11:53;;;;;;;0.80;0.45;;;23.80;51.50;;;;;;6248914;28;20050;-42
2022/07/15 07:14:56;;;;;;;0.88;0.43;;;23.90;50.80;;;;;;6247372;28;22058;-41
2022/07/15 07:17:57;;;;;;;0.60;0.40;;;23.90;50.80;;;;;;6236772;28;22120;-43
2022/07/15 07:20:59;;;;;;;0.40;0.35;;;23.90;50.70;;;;;;6253606;28;20158;-44
2022/07/15 07:24:00;;;;;;;0.57;0.57;;;24.00;50.70;;;;;;6258319;28;20084;-45
2022/07/15 07:27:02;;;;;;;0.80;0.60;;;24.00;50.60;;;;;;6258974;28;20070;-43
2022/07/15 07:30:09;;;;;;;1.52;0.40;;;24.00;50.50;;;;;;6256986;28;20048;-42
2022/07/15 07:33:11;;;;;;;0.68;0.40;;;24.00;50.50;;;;;;6252111;28;20091;-42
2022/07/15 07:36:13;;;;;;;0.40;0.40;;;24.00;50.50;;;;;;6258057;28;20101;-43
2022/07/15 07:39:15;;;;;;;0.30;0.30;;;23.90;50.30;;;;;;6253043;28;20043;-42
2022/07/15 07:42:17;;;;;;;0.40;0.40;;;24.00;50.30;;;;;;6249017;28;20048;-43
2022/07/15 07:45:19;;;;;;;1.55;0.35;;;24.00;50.20;;;;;;6234779;28;20047;-41
2022/07/15 07:48:21;;;;;;;0.30;0.30;;;24.00;50.10;;;;;;6250386;28;20048;-46
2022/07/15 07:51:23;;;;;;;0.60;0.40;;;24.00;50.00;;;;;;6251136;28;20066;-42
2022/07/15 07:54:25;;;;;;;0.50;0.45;;;24.00;49.90;;;;;;6250210;28;21015;-44
2022/07/15 07:57:27;;;;;;;0.43;0.30;;;24.10;49.80;;;;;;6247475;28;20051;-48
2022/07/15 08:00:30;;;;;;;0.55;0.50;;;24.10;49.70;;;;;;6238151;28;20048;-41
2022/07/15 08:03:32;;;;;;;0.55;0.30;;;24.10;49.60;;;;;;6209539;28;20083;-43
2022/07/15 08:06:34;;;;;;;0.50;0.40;;;24.00;49.40;;;;;;6244613;28;20051;-42
2022/07/15 08:09:36;;;;;;;0.93;0.50;;;24.00;49.30;;;;;;6242340;28;20047;-46
2022/07/15 08:12:39;;;;;;;0.45;0.40;;;24.10;49.20;;;;;;6238256;28;20202;-42
2022/07/15 08:15:42;;;;;;;0.52;0.43;;;24.10;49.10;;;;;;6202199;28;20055;-41
2022/07/15 08:18:44;;;;;;;0.45;0.40;;;24.10;49.00;;;;;;6240690;28;20971;-42
2022/07/15 08:21:46;;;;;;;0.55;0.30;;;24.10;48.80;;;;;;6246360;28;21059;-44
2022/07/15 08:24:49;;;;;;;0.43;0.43;;;24.20;48.70;;;;;;6223135;28;20062;-42
2022/07/15 08:27:52;;;;;;;0.32;0.32;;;24.20;48.60;;;;;;6238372;28;20044;-43
2022/07/15 08:30:55;;;;;;;0.30;0.30;;;24.20;48.50;;;;;;6243720;28;20068;-42
2022/07/15 08:33:57;;;;;;;0.50;0.50;;;24.20;48.40;;;;;;6243385;28;20147;-40
2022/07/15 08:36:59;;;;;;;0.57;0.50;;;24.20;48.30;;;;;;6237355;28;20129;-43
2022/07/15 08:40:01;;;;;;;0.70;0.40;;;24.20;48.10;;;;;;6243587;28;20040;-41
2022/07/15 08:43:05;;;;;;;0.68;0.50;;;24.30;48.10;;;;;;6242516;28;20074;-43
2022/07/15 08:46:11;;;;;;;0.38;0.30;;;24.20;47.90;;;;;;6240126;28;20043;-40
2022/07/15 08:49:16;;;;;;;0.47;0.40;;;24.20;47.80;;;;;;6247711;28;20047;-45
2022/07/15 08:52:18;;;;;;;0.30;0.30;;;24.20;47.50;;;;;;6201822;28;20050;-45
2022/07/15 08:55:20;;;;;;;0.45;0.30;;;24.20;47.40;;;;;;6245943;28;20207;-41
2022/07/15 08:58:22;;;;;;;0.45;0.40;;;24.30;47.30;;;;;;6241645;28;20044;-45
2022/07/15 09:01:46;;;;;;;0.55;0.30;;;24.20;47.10;;;;;;6228064;28;20038;-43
2022/07/15 09:05:13;;;;;;;0.45;0.30;;;24.30;47.50;;;;;;6238490;28;20055;-44
2022/07/15 09:08:16;;;;;;;0.35;0.35;;;24.30;46.60;;;;;;6246514;28;20048;-40
2022/07/15 09:11:28;;;;;;;0.40;0.30;;;24.30;46.50;;;;;;6220382;28;20158;-45
2022/07/15 09:14:31;;;;;;;0.52;0.40;;;24.30;46.20;;;;;;6245400;28;20047;-41
2022/07/15 09:17:36;;;;;;;0.50;0.43;;;24.30;46.10;;;;;;6237501;28;21238;-41
2022/07/15 09:20:39;;;;;;;0.43;0.40;;;24.30;45.90;;;;;;6246294;28;20043;-40
2022/07/15 09:23:41;;;;;;;0.30;0.30;;;24.30;45.60;;;;;;6205937;28;20050;-40
2022/07/15 09:26:42;;;;;;;0.40;0.38;;;24.30;45.40;;;;;;6246858;28;20054;-40
2022/07/15 09:36:24;;;;;;;0.45;0.20;;;24.30;44.90;;;;;;6222881;28;20051;-44
2022/07/15 09:39:26;;;;;;;0.40;0.30;;;24.30;44.70;;;;;;6242638;28;20043;-43
2022/07/15 09:42:28;;;;;;;0.32;0.32;;;24.40;44.60;;;;;;6245470;28;21301;-43
2022/07/15 09:45:29;;;;;;;0.30;0.30;;;24.40;44.40;;;;;;6241848;28;20162;-41
2022/07/15 09:48:40;;;;;;;0.65;0.30;;;24.40;44.30;;;;;;6253643;28;20039;-42
2022/07/15 09:51:44;;;;;;;0.47;0.47;;;24.20;43.90;;;;;;6258057;28;20139;-43
2022/07/15 09:54:48;;;;;;;0.60;0.50;;;24.30;43.90;;;;;;6232753;28;20071;-42
2022/07/15 09:57:49;;;;;;;0.40;0.30;;;24.40;43.90;;;;;;6245300;28;20156;-40
2022/07/15 10:00:52;;;;;;;0.55;0.32;;;24.40;43.80;;;;;;6228315;28;20291;-43
2022/07/15 10:03:55;;;;;;;1.10;0.40;;;24.30;43.70;;;;;;6230985;28;20048;-43
2022/07/15 10:06:59;;;;;;;0.50;0.30;;;24.30;43.50;;;;;;6246742;28;20470;-41
2022/07/15 10:10:22;;;;;;;0.88;0.43;;;24.40;43.40;;;;;;6228717;28;20040;-45
2022/07/15 10:13:41;;;;;;;0.38;0.30;;;24.40;43.30;;;;;;6249383;28;20059;-42
2022/07/15 10:16:59;;;;;;;0.52;0.30;;;24.40;43.20;;;;;;6247763;28;20154;-44
2022/07/15 10:20:25;;;;;;;0.30;0.30;;;24.40;43.10;;;;;;6238416;28;20530;-41
2022/07/15 10:23:42;;;;;;;0.47;0.30;;;24.50;43.00;;;;;;6256796;28;20050;-41
2022/07/15 10:26:56;;;;;;;0.28;0.20;;;24.50;42.90;;;;;;6241530;28;20067;-43
2022/07/15 10:30:04;;;;;;;0.68;0.38;;;24.50;42.80;;;;;;6234662;28;20074;-43
2022/07/15 10:33:10;;;;;;;0.50;0.40;;;24.40;42.70;;;;;;6233792;28;20040;-44
2022/07/15 10:36:15;;;;;;;0.30;0.30;;;24.50;42.70;;;;;;6228762;28;21066;-43
2022/07/15 10:39:18;;;;;;;0.65;0.30;;;24.50;43.20;;;;;;6244058;28;20038;-42
2022/07/15 10:42:21;;;;;;;0.30;0.30;;;24.40;42.50;;;;;;6229477;28;20043;-42
2022/07/15 10:45:23;;;;;;;0.40;0.30;;;24.50;42.50;;;;;;6252732;28;20071;-42
2022/07/15 10:48:26;;;;;;;0.30;0.30;;;24.50;42.40;;;;;;6250370;28;20090;-42
2022/07/15 10:51:45;;;;;;;0.32;0.30;;;24.50;42.30;;;;;;6234990;28;20149;-43
2022/07/15 10:54:49;;;;;;;0.40;0.30;;;24.50;42.20;;;;;;6217065;28;20086;-46
2022/07/15 10:57:53;;;;;;;0.40;0.30;;;24.50;42.20;;;;;;6237953;28;20044;-44
2022/07/15 11:00:56;;;;;;;0.40;0.30;;;24.50;42.10;;;;;;6235604;28;20050;-48
2022/07/15 11:04:13;;;;;;;0.30;0.30;;;24.60;42.10;;;;;;6252610;28;20940;-43
2022/07/15 11:07:26;;;;;;;0.50;0.40;;;24.50;42.00;;;;;;6214560;28;20151;-40
2022/07/15 11:10:28;;;;;;;0.70;0.40;;;24.50;41.90;;;;;;6249816;28;21082;-44
2022/07/15 11:13:33;;;;;;;0.50;0.50;;;24.60;42.00;;;;;;6255313;28;20050;-43
2022/07/15 11:16:35;;;;;;;0.22;0.22;;;24.50;42.00;;;;;;6230695;28;20075;-43
2022/07/15 11:19:37;;;;;;;0.40;0.30;;;24.60;41.90;;;;;;6255548;28;20051;-40
2022/07/15 11:22:41;;;;;;;0.30;0.20;;;24.60;41.90;;;;;;6238292;28;20051;-43
2022/07/15 11:25:43;;;;;;;0.40;0.30;;;24.60;41.90;;;;;;6250874;28;20096;-48
2022/07/15 11:28:49;;;;;;;0.50;0.30;;;24.50;41.70;;;;;;6232595;28;20052;-44
2022/07/15 11:31:52;;;;;;;0.30;0.30;;;24.60;41.60;;;;;;6237182;28;20455;-45
2022/07/15 11:34:56;;;;;;;0.50;0.40;;;24.60;41.50;;;;;;6234278;28;20247;-42
2022/07/15 11:38:01;;;;;;;0.32;0.32;;;24.70;41.60;;;;;;6234995;28;20350;-43
2022/07/15 11:44:30;;;;;;;0.70;0.55;;;24.70;41.50;;;;;;6231253;28;20047;-41
2022/07/15 11:47:31;;;;;;;0.40;0.40;;;24.60;41.40;;;;;;6250476;28;22668;-41
2022/07/15 11:50:34;;;;;;;0.75;0.50;;;24.60;41.40;;;;;;6240403;28;21087;-43
2022/07/15 11:53:38;;;;;;;0.60;0.50;;;24.70;41.40;;;;;;6226608;28;20040;-45
2022/07/15 11:56:39;;;;;;;0.57;0.47;;;24.70;41.40;;;;;;6205261;28;20051;-45
2022/07/15 11:59:51;;;;;;;1.23;0.43;;;24.70;41.30;;;;;;6240273;28;20147;-40
2022/07/15 12:03:06;;;;;;;0.63;0.57;;;24.70;41.30;;;;;;6244135;28;20171;-41
2022/07/15 12:06:11;;;;;;;0.63;0.40;;;24.60;41.20;;;;;;6219831;28;20066;-46
2022/07/15 12:09:13;;;;;;;0.52;0.50;;;24.70;41.30;;;;;;6195603;28;20834;-42
2022/07/15 12:12:16;;;;;;;0.52;0.40;;;24.70;41.30;;;;;;6216053;28;20075;-42
2022/07/15 12:15:19;;;;;;;0.45;0.40;;;24.70;41.30;;;;;;6211501;28;20047;-44
2022/07/15 12:18:20;;;;;;;0.70;0.40;;;24.60;41.10;;;;;;6240647;28;20052;-42
2022/07/15 12:21:23;;;;;;;0.40;0.40;;;24.70;41.10;;;;;;6229799;28;20160;-42
2022/07/15 12:24:35;;;;;;;0.52;0.40;;;24.70;41.00;;;;;;6245520;28;20120;-44
2022/07/15 12:27:37;;;;;;;0.40;0.40;;;24.70;40.90;;;;;;6212396;28;20931;-43
2022/07/15 12:30:39;;;;;;;0.77;0.50;;;24.70;40.90;;;;;;6203134;28;20040;-46
2022/07/15 12:33:41;;;;;;;0.40;0.30;;;24.70;40.80;;;;;;6226538;28;20545;-44
2022/07/15 12:36:43;;;;;;;0.50;0.40;;;24.70;40.90;;;;;;6231138;28;20179;-42
2022/07/15 12:39:56;;;;;;;0.55;0.32;;;24.80;40.90;;;;;;6233238;28;20733;-41
2022/07/15 12:42:58;;;;;;;0.50;0.40;;;24.70;40.70;;;;;;6233533;28;20784;-41
2022/07/15 12:46:01;;;;;;;0.60;0.40;;;24.70;40.80;;;;;;6231267;28;20048;-49
2022/07/15 12:49:02;;;;;;;0.43;0.40;;;24.70;40.70;;;;;;6219844;28;20369;-43
2022/07/15 12:52:16;;;;;;;0.63;0.40;;;24.70;40.70;;;;;;6222845;28;20628;-42
2022/07/15 12:55:20;;;;;;;0.30;0.30;;;24.70;40.60;;;;;;6228128;28;20557;-47
2022/07/15 12:58:26;;;;;;;1.25;0.40;;;24.70;40.60;;;;;;6199775;28;20361;-48
2022/07/15 13:01:27;;;;;;;0.52;0.40;;;24.70;40.50;;;;;;6230201;28;20846;-41
2022/07/15 13:04:29;;;;;;;0.52;0.40;;;24.80;40.70;;;;;;6236439;28;21084;-45
2022/07/15 13:07:30;;;;;;;0.50;0.30;;;24.80;40.70;;;;;;6246392;28;20040;-42
2022/07/15 13:10:33;;;;;;;0.40;0.30;;;24.80;40.60;;;;;;6233496;28;20048;-42
2022/07/15 13:13:37;;;;;;;0.40;0.30;;;24.70;40.60;;;;;;6237959;28;20161;-42
2022/07/15 13:16:39;;;;;;;0.50;0.43;;;24.80;40.60;;;;;;6240740;28;20059;-41
2022/07/15 13:19:40;;;;;;;0.45;0.30;;;24.80;40.60;;;;;;6238034;28;20150;-41
2022/07/15 13:22:42;;;;;;;0.40;0.40;;;24.70;40.50;;;;;;6233069;28;20325;-44
2022/07/15 13:25:50;;;;;;;0.50;0.50;;;24.70;40.60;;;;;;6235190;28;20072;-44
2022/07/15 13:28:52;;;;;;;0.38;0.35;;;24.70;40.50;;;;;;6240138;28;20815;-42
2022/07/15 13:31:53;;;;;;;0.55;0.40;;;24.80;40.50;;;;;;6220486;28;20043;-46
2022/07/15 13:34:55;;;;;;;0.55;0.40;;;24.70;40.50;;;;;;6224825;28;20554;-44
2022/07/15 13:37:57;;;;;;;0.43;0.40;;;24.70;40.50;;;;;;6222031;28;21117;-43
2022/07/15 13:40:59;;;;;;;0.43;0.32;;;24.80;40.50;;;;;;6219956;28;20066;-42
2022/07/15 13:44:01;;;;;;;0.40;0.30;;;24.70;40.40;;;;;;6227282;28;20173;-43
2022/07/15 13:47:03;;;;;;;0.47;0.40;;;24.70;40.40;;;;;;6244794;28;20144;-43
2022/07/15 13:53:22;;;;;;;0.50;0.38;;;24.70;40.40;;;;;;6208470;28;20428;-41
2022/07/15 13:56:26;;;;;;;0.30;0.28;;;24.70;40.40;;;;;;6214319;28;20659;-41
2022/07/15 13:59:28;;;;;;;0.43;0.40;;;24.90;40.40;;;;;;6201040;28;20689;-44
2022/07/15 14:02:30;;;;;;;0.47;0.35;;;24.80;40.30;;;;;;6198560;28;20125;-40
2022/07/15 14:05:32;;;;;;;0.43;0.40;;;24.70;40.20;;;;;;6245663;28;20055;-42
2022/07/15 14:08:34;;;;;;;0.50;0.40;;;24.60;40.20;;;;;;6231274;28;21154;-44
2022/07/15 14:11:36;;;;;;;0.38;0.30;;;24.60;40.20;;;;;;6220797;28;20042;-44
2022/07/15 14:14:37;;;;;;;0.30;0.25;;;24.70;40.30;;;;;;6243855;28;20190;-44
2022/07/15 14:17:42;;;;;;;0.73;0.40;;;24.70;40.40;;;;;;6247763;28;20044;-45
2022/07/15 14:20:45;;;;;;;0.60;0.50;;;24.80;40.50;;;;;;6254498;28;20208;-41
2022/07/15 14:23:48;;;;;;;0.38;0.30;;;24.70;40.50;;;;;;6245138;28;20129;-46
2022/07/15 14:26:53;;;;;;;0.40;0.40;;;24.70;40.60;;;;;;6235084;28;20048;-44
2022/07/15 14:29:55;;;;;;;0.63;0.40;;;24.70;40.60;;;;;;6257799;27;20772;-42
2022/07/15 14:33:03;;;;;;;0.50;0.40;;;24.70;40.60;;;;;;6251033;28;20044;-42
2022/07/15 14:36:05;;;;;;;0.40;0.40;;;24.70;40.60;;;;;;6252510;28;21656;-41
2022/07/15 14:39:07;;;;;;;0.40;0.32;;;24.70;40.60;;;;;;6254202;28;20051;-42
2022/07/15 14:42:09;;;;;;;0.35;0.30;;;24.80;40.60;;;;;;6253756;28;20070;-46
2022/07/15 14:45:11;;;;;;;0.30;0.30;;;24.80;40.60;;;;;;6254159;28;20154;-44
2022/07/15 14:48:13;;;;;;;0.30;0.30;;;24.70;40.60;;;;;;6245855;28;20154;-43
2022/07/15 14:51:14;;;;;;;0.30;0.22;;;24.70;40.50;;;;;;6244557;28;21336;-48
2022/07/15 14:54:16;;;;;;;0.55;0.52;;;24.70;40.50;;;;;;6241448;28;20046;-42
2022/07/15 14:57:18;;;;;;;0.38;0.30;;;24.70;40.40;;;;;;6256087;28;20039;-42
2022/07/15 15:00:20;;;;;;;0.30;0.30;;;24.70;40.40;;;;;;6244347;28;20249;-41
2022/07/15 15:03:22;;;;;;;0.40;0.40;;;24.70;40.40;;;;;;6246083;28;20138;-41
2022/07/15 15:06:23;;;;;;;0.30;0.30;;;24.90;40.40;;;;;;6248445;28;20032;-41
2022/07/15 15:09:25;;;;;;;0.50;0.40;;;24.90;40.40;;;;;;6248029;28;21019;-44
2022/07/15 15:12:28;;;;;;;0.40;0.40;;;24.90;40.30;;;;;;6242746;28;20182;-44
2022/07/15 15:15:29;;;;;;;0.90;0.50;;;24.80;40.30;;;;;;6229750;28;20055;-43
2022/07/15 15:18:31;;;;;;;0.50;0.40;;;24.90;40.30;;;;;;6229060;28;20351;-46
2022/07/15 15:21:33;;;;;;;0.38;0.30;;;24.80;40.10;;;;;;6225051;28;20537;-43
2022/07/15 15:24:35;;;;;;;0.40;0.40;;;24.70;39.90;;;;;;6224557;28;20067;-44
2022/07/15 15:27:39;;;;;;;0.50;0.32;;;24.80;39.90;;;;;;6242601;28;20142;-46
2022/07/15 15:30:41;;;;;;;0.35;0.30;;;24.80;39.80;;;;;;6232793;28;20048;-44
2022/07/15 15:33:42;;;;;;;0.30;0.30;;;24.80;39.80;;;;;;6229883;28;20352;-40
2022/07/15 15:36:44;;;;;;;0.38;0.30;;;24.80;39.80;;;;;;6237766;28;20411;-47
2022/07/15 15:39:46;;;;;;;0.43;0.40;;;24.90;40.00;;;;;;6242971;28;20451;-42
2022/07/15 15:42:49;;;;;;;0.73;0.50;;;24.80;40.30;;;;;;6241818;28;20166;-43
2022/07/15 15:45:51;;;;;;;0.40;0.32;;;24.80;40.90;;;;;;6244366;28;20453;-43
2022/07/15 15:48:52;;;;;;;0.55;0.50;;;24.80;41.30;;;;;;6237973;28;20633;-41
2022/07/15 15:51:54;;;;;;;1.00;0.50;;;24.90;41.80;;;;;;6246849;28;20063;-45
2022/07/15 15:54:56;;;;;;;0.50;0.40;;;24.90;42.10;;;;;;6253240;28;21098;-44
2022/07/15 15:58:01;;;;;;;0.88;0.60;;;24.80;42.40;;;;;;6246639;28;20973;-42
2022/07/15 16:01:26;;;;;;;0.35;0.35;;;24.90;42.60;;;;;;6234396;28;20047;-48
2022/07/15 16:04:28;;;;;;;0.77;0.60;;;24.90;43.00;;;;;;6250916;28;20055;-42
2022/07/15 16:07:29;;;;;;;0.70;0.60;;;24.90;43.30;;;;;;6259183;28;20373;-43
2022/07/15 16:10:31;;;;;;;0.40;0.32;;;24.90;43.60;;;;;;6238032;28;20082;-48
2022/07/15 16:13:33;;;;;;;1.02;0.55;;;24.90;43.90;;;;;;6240856;28;20277;-44